AFR605 WBKK-WIII
Flight info
| Callsign | AFR605 |
|---|---|
| Flight time | 2h 10m |
| Altitude | 36000 |
| Route | PIMEP2F PIMEP P648 AMBOY |
| Aircraft | A320/M-SDE3FGHIRWY/LB1 |
Departure
| Time | 2026-04-20 16:35 |
|---|---|
| Airport | Kota Kinabalu International Airport (WBKK) |
Arrival
| Time | 2026-04-20 18:45 |
|---|---|
| Airport | Soekarno-Hatta International Airport (WIII) |
| Time | Latitude | Longitude | Altitude | Speed | Heading |
|---|---|---|---|---|---|
| 2026-04-20 16:21 | 5.92543 | 116.05007 | 12 ft | 0 kts | 111° |
| 2026-04-20 16:29 | 5.92546 | 116.04998 | 11 ft | 4 kts | 113° |
| 2026-04-20 16:29 | 5.92558 | 116.04974 | 12 ft | 4 kts | 126° |
| 2026-04-20 16:29 | 5.92576 | 116.04955 | 14 ft | 4 kts | 153° |
| 2026-04-20 16:29 | 5.92596 | 116.04951 | 13 ft | 1 kts | 204° |
| 2026-04-20 16:30 | 5.92600 | 116.04953 | 13 ft | 0 kts | 204° |
| 2026-04-20 16:32 | 5.92543 | 116.04928 | 12 ft | 13 kts | 204° |
| 2026-04-20 16:32 | 5.92440 | 116.04884 | 13 ft | 19 kts | 203° |
| 2026-04-20 16:32 | 5.92405 | 116.04802 | 11 ft | 12 kts | 283° |
| 2026-04-20 16:32 | 5.92352 | 116.04723 | 12 ft | 19 kts | 203° |
| 2026-04-20 16:33 | 5.92213 | 116.04665 | 12 ft | 23 kts | 203° |
| 2026-04-20 16:33 | 5.92061 | 116.04601 | 13 ft | 24 kts | 202° |
| 2026-04-20 16:33 | 5.91902 | 116.04535 | 12 ft | 25 kts | 202° |
| 2026-04-20 16:33 | 5.91785 | 116.04457 | 12 ft | 16 kts | 259° |
| 2026-04-20 16:34 | 5.91822 | 116.04361 | 15 ft | 13 kts | 309° |
| 2026-04-20 16:34 | 5.91898 | 116.04349 | 13 ft | 12 kts | 22° |
| 2026-04-20 16:34 | 5.92079 | 116.04426 | 13 ft | 61 kts | 22° |
| 2026-04-20 16:34 | 5.92675 | 116.04675 | 11 ft | 122 kts | 22° |
| 2026-04-20 16:35 | 5.93610 | 116.05066 | 14 ft | 168 kts | 22° |
| 2026-04-20 16:35 | 5.94747 | 116.05542 | 390 ft | 181 kts | 22° |
| 2026-04-20 16:35 | 5.95916 | 116.05986 | 1051 ft | 179 kts | 21° |
| 2026-04-20 16:35 | 5.97143 | 116.06422 | 1412 ft | 198 kts | 21° |
| 2026-04-20 16:36 | 5.98537 | 116.06882 | 1670 ft | 224 kts | 10° |
| 2026-04-20 16:36 | 6.00126 | 116.06626 | 1997 ft | 248 kts | 331° |
| 2026-04-20 16:36 | 6.01377 | 116.05362 | 2414 ft | 267 kts | 300° |
| 2026-04-20 16:36 | 6.02133 | 116.03646 | 3173 ft | 272 kts | 289° |
| 2026-04-20 16:37 | 6.02693 | 116.01815 | 3948 ft | 276 kts | 287° |
| 2026-04-20 16:37 | 6.03237 | 115.99962 | 4751 ft | 278 kts | 288° |
| 2026-04-20 16:37 | 6.03774 | 115.98108 | 5531 ft | 281 kts | 280° |
| 2026-04-20 16:37 | 6.03652 | 115.96147 | 6274 ft | 286 kts | 251° |
| 2026-04-20 16:38 | 6.02640 | 115.94441 | 6993 ft | 288 kts | 223° |
| 2026-04-20 16:38 | 6.00952 | 115.93389 | 7728 ft | 287 kts | 200° |
| 2026-04-20 16:38 | 5.99096 | 115.92628 | 8501 ft | 289 kts | 203° |
| 2026-04-20 16:38 | 5.97276 | 115.91759 | 9280 ft | 290 kts | 206° |
| 2026-04-20 16:39 | 5.95461 | 115.90841 | 9981 ft | 294 kts | 206° |
| 2026-04-20 16:39 | 5.93606 | 115.89891 | 10361 ft | 309 kts | 206° |
| 2026-04-20 16:39 | 5.91613 | 115.88882 | 10479 ft | 332 kts | 206° |
| 2026-04-20 16:39 | 5.89472 | 115.87812 | 10612 ft | 353 kts | 205° |
| 2026-04-20 16:40 | 5.87204 | 115.86695 | 10722 ft | 372 kts | 205° |
| 2026-04-20 16:40 | 5.84847 | 115.85546 | 11114 ft | 380 kts | 205° |
| 2026-04-20 16:40 | 5.82450 | 115.84386 | 11623 ft | 385 kts | 205° |
| 2026-04-20 16:40 | 5.80022 | 115.83216 | 12156 ft | 389 kts | 205° |
| 2026-04-20 16:41 | 5.77570 | 115.82034 | 12689 ft | 393 kts | 205° |
| 2026-04-20 16:41 | 5.75095 | 115.80840 | 13207 ft | 396 kts | 205° |
| 2026-04-20 16:41 | 5.72592 | 115.79634 | 13720 ft | 400 kts | 205° |
| 2026-04-20 16:41 | 5.70074 | 115.78434 | 14154 ft | 403 kts | 205° |
| 2026-04-20 16:42 | 5.67532 | 115.77233 | 14631 ft | 405 kts | 205° |
| 2026-04-20 16:42 | 5.65840 | 115.76436 | 14939 ft | 406 kts | 205° |
| 2026-04-20 16:42 | 5.63272 | 115.75227 | 15397 ft | 408 kts | 205° |
| 2026-04-20 16:42 | 5.60698 | 115.74014 | 15843 ft | 409 kts | 205° |
| 2026-04-20 16:43 | 5.58115 | 115.72791 | 16279 ft | 412 kts | 205° |
| 2026-04-20 16:43 | 5.55514 | 115.71555 | 16704 ft | 414 kts | 205° |
| 2026-04-20 16:43 | 5.52925 | 115.70285 | 17120 ft | 416 kts | 206° |
| 2026-04-20 16:43 | 5.50333 | 115.68975 | 17525 ft | 418 kts | 207° |
| 2026-04-20 16:44 | 5.47737 | 115.67645 | 17956 ft | 419 kts | 207° |
| 2026-04-20 16:44 | 5.45132 | 115.66308 | 18373 ft | 420 kts | 207° |
| 2026-04-20 16:44 | 5.42526 | 115.64976 | 18717 ft | 422 kts | 207° |
| 2026-04-20 16:44 | 5.39928 | 115.63656 | 19030 ft | 424 kts | 207° |
| 2026-04-20 16:45 | 5.37315 | 115.62255 | 19323 ft | 427 kts | 212° |
| 2026-04-20 16:45 | 5.34906 | 115.60497 | 19653 ft | 430 kts | 218° |
| 2026-04-20 16:45 | 5.32553 | 115.58634 | 19957 ft | 432 kts | 218° |
| 2026-04-20 16:45 | 5.30191 | 115.56761 | 20276 ft | 434 kts | 218° |
| 2026-04-20 16:46 | 5.27816 | 115.54880 | 20595 ft | 436 kts | 218° |
| 2026-04-20 16:46 | 5.25434 | 115.52996 | 20905 ft | 438 kts | 218° |
| 2026-04-20 16:46 | 5.23036 | 115.51099 | 21198 ft | 440 kts | 218° |
| 2026-04-20 16:46 | 5.20623 | 115.49188 | 21513 ft | 442 kts | 218° |
| 2026-04-20 16:47 | 5.18205 | 115.47271 | 21813 ft | 444 kts | 218° |
| 2026-04-20 16:47 | 5.15777 | 115.45344 | 22106 ft | 446 kts | 218° |
| 2026-04-20 16:47 | 5.13339 | 115.43412 | 22400 ft | 447 kts | 218° |
| 2026-04-20 16:47 | 5.10889 | 115.41475 | 22698 ft | 449 kts | 218° |
| 2026-04-20 16:48 | 5.08424 | 115.39528 | 22976 ft | 451 kts | 218° |
| 2026-04-20 16:48 | 5.05954 | 115.37577 | 23241 ft | 453 kts | 218° |
| 2026-04-20 16:48 | 5.03514 | 115.35647 | 23496 ft | 455 kts | 218° |
| 2026-04-20 16:48 | 5.00998 | 115.33658 | 23712 ft | 456 kts | 218° |
| 2026-04-20 16:49 | 4.98529 | 115.31705 | 23917 ft | 458 kts | 218° |
| 2026-04-20 16:49 | 4.96024 | 115.29725 | 24157 ft | 459 kts | 218° |
| 2026-04-20 16:49 | 4.93513 | 115.27738 | 24374 ft | 461 kts | 218° |
| 2026-04-20 16:49 | 4.90993 | 115.25746 | 24578 ft | 462 kts | 218° |
| 2026-04-20 16:50 | 4.88465 | 115.23747 | 24782 ft | 463 kts | 218° |
| 2026-04-20 16:50 | 4.85930 | 115.21741 | 24986 ft | 465 kts | 218° |
| 2026-04-20 16:50 | 4.83386 | 115.19719 | 25171 ft | 466 kts | 218° |
| 2026-04-20 16:50 | 4.80858 | 115.17684 | 25380 ft | 468 kts | 218° |
| 2026-04-20 16:51 | 4.78327 | 115.15625 | 25571 ft | 469 kts | 219° |
| 2026-04-20 16:51 | 4.75790 | 115.13555 | 25759 ft | 471 kts | 219° |
| 2026-04-20 16:51 | 4.73245 | 115.11481 | 25954 ft | 472 kts | 219° |
| 2026-04-20 16:51 | 4.70684 | 115.09399 | 26130 ft | 474 kts | 218° |
| 2026-04-20 16:52 | 4.68124 | 115.07323 | 26334 ft | 475 kts | 218° |
| 2026-04-20 16:52 | 4.65547 | 115.05241 | 26517 ft | 476 kts | 218° |
| 2026-04-20 16:52 | 4.62962 | 115.03155 | 26709 ft | 477 kts | 218° |
| 2026-04-20 16:52 | 4.60378 | 115.01068 | 26966 ft | 477 kts | 218° |
| 2026-04-20 16:53 | 4.57791 | 114.98975 | 27219 ft | 477 kts | 218° |
| 2026-04-20 16:53 | 4.55211 | 114.96887 | 27480 ft | 477 kts | 218° |
| 2026-04-20 16:53 | 4.52633 | 114.94799 | 27740 ft | 476 kts | 218° |
| 2026-04-20 16:53 | 4.50054 | 114.92714 | 28005 ft | 476 kts | 218° |
| 2026-04-20 16:54 | 4.47506 | 114.90656 | 28292 ft | 475 kts | 218° |
| 2026-04-20 16:54 | 4.44901 | 114.88548 | 28588 ft | 474 kts | 218° |
| 2026-04-20 16:54 | 4.42336 | 114.86483 | 28871 ft | 474 kts | 218° |
| 2026-04-20 16:54 | 4.39760 | 114.84483 | 29155 ft | 473 kts | 217° |
| 2026-04-20 16:55 | 4.37134 | 114.82508 | 29438 ft | 473 kts | 216° |
| 2026-04-20 16:55 | 4.34482 | 114.80548 | 29723 ft | 472 kts | 216° |
| 2026-04-20 16:55 | 4.31834 | 114.78600 | 29989 ft | 472 kts | 216° |
| 2026-04-20 16:55 | 4.29193 | 114.76647 | 30245 ft | 471 kts | 216° |
| 2026-04-20 16:56 | 4.26569 | 114.74690 | 30493 ft | 471 kts | 216° |
| 2026-04-20 16:56 | 4.23946 | 114.72716 | 30736 ft | 470 kts | 217° |
| 2026-04-20 16:56 | 4.21336 | 114.70745 | 30987 ft | 469 kts | 217° |
| 2026-04-20 16:56 | 4.18732 | 114.68775 | 31240 ft | 469 kts | 217° |
| 2026-04-20 16:57 | 4.16131 | 114.66808 | 31500 ft | 468 kts | 217° |
| 2026-04-20 16:57 | 4.13532 | 114.64847 | 31760 ft | 467 kts | 217° |
| 2026-04-20 16:57 | 4.10933 | 114.62893 | 32013 ft | 467 kts | 217° |
| 2026-04-20 16:57 | 4.08340 | 114.60941 | 32264 ft | 466 kts | 217° |
| 2026-04-20 16:58 | 4.05752 | 114.58991 | 32532 ft | 465 kts | 217° |
| 2026-04-20 16:58 | 4.03174 | 114.57047 | 32811 ft | 464 kts | 217° |
| 2026-04-20 16:58 | 4.00593 | 114.55104 | 33083 ft | 464 kts | 217° |
| 2026-04-20 16:58 | 3.98021 | 114.53167 | 33349 ft | 463 kts | 217° |
| 2026-04-20 16:59 | 3.95447 | 114.51231 | 33621 ft | 462 kts | 217° |
| 2026-04-20 16:59 | 3.92877 | 114.49299 | 33888 ft | 462 kts | 217° |
| 2026-04-20 16:59 | 3.90325 | 114.47348 | 34128 ft | 461 kts | 218° |
| 2026-04-20 16:59 | 3.87803 | 114.45367 | 34368 ft | 460 kts | 218° |
| 2026-04-20 17:00 | 3.82808 | 114.41371 | 34838 ft | 459 kts | 218° |
| 2026-04-20 17:00 | 3.80318 | 114.39378 | 35071 ft | 458 kts | 218° |
| 2026-04-20 17:00 | 3.77828 | 114.37393 | 35263 ft | 457 kts | 218° |
| 2026-04-20 17:01 | 3.75333 | 114.35415 | 35468 ft | 457 kts | 218° |
| 2026-04-20 17:01 | 3.72836 | 114.33444 | 35669 ft | 457 kts | 218° |
| 2026-04-20 17:01 | 3.70367 | 114.31498 | 35849 ft | 457 kts | 218° |
| 2026-04-20 17:02 | 3.65354 | 114.27548 | 35920 ft | 460 kts | 218° |
| 2026-04-20 17:02 | 3.60325 | 114.23574 | 35918 ft | 461 kts | 218° |
| 2026-04-20 17:03 | 3.55298 | 114.19594 | 35919 ft | 461 kts | 218° |
| 2026-04-20 17:03 | 3.50270 | 114.15623 | 35917 ft | 461 kts | 218° |
| 2026-04-20 17:04 | 3.45233 | 114.11648 | 35925 ft | 461 kts | 218° |
| 2026-04-20 17:04 | 3.40188 | 114.07661 | 35929 ft | 462 kts | 218° |
| 2026-04-20 17:05 | 3.35145 | 114.03677 | 35924 ft | 462 kts | 218° |
| 2026-04-20 17:05 | 3.30090 | 113.99696 | 35927 ft | 462 kts | 218° |
| 2026-04-20 17:06 | 3.25036 | 113.95706 | 35928 ft | 463 kts | 218° |
| 2026-04-20 17:06 | 3.19982 | 113.91712 | 35934 ft | 463 kts | 218° |
| 2026-04-20 17:07 | 3.14924 | 113.87720 | 35929 ft | 463 kts | 218° |
| 2026-04-20 17:07 | 3.09868 | 113.83735 | 35927 ft | 463 kts | 218° |
| 2026-04-20 17:08 | 3.04810 | 113.79743 | 35934 ft | 463 kts | 218° |
| 2026-04-20 17:08 | 2.99747 | 113.75746 | 35939 ft | 463 kts | 218° |
| 2026-04-20 17:09 | 2.94714 | 113.71779 | 35925 ft | 463 kts | 218° |
| 2026-04-20 17:09 | 2.89647 | 113.67792 | 35931 ft | 463 kts | 218° |
| 2026-04-20 17:10 | 2.84587 | 113.63803 | 35932 ft | 464 kts | 218° |
| 2026-04-20 17:10 | 2.79516 | 113.59802 | 35927 ft | 464 kts | 218° |
| 2026-04-20 17:11 | 2.74444 | 113.55802 | 35926 ft | 464 kts | 218° |
| 2026-04-20 17:11 | 2.69374 | 113.51815 | 35930 ft | 464 kts | 218° |
| 2026-04-20 17:12 | 2.64292 | 113.47825 | 35927 ft | 464 kts | 218° |
| 2026-04-20 17:12 | 2.59222 | 113.43846 | 35925 ft | 464 kts | 218° |
| 2026-04-20 17:13 | 2.54146 | 113.39858 | 35925 ft | 464 kts | 218° |
| 2026-04-20 17:13 | 2.49065 | 113.35867 | 35925 ft | 464 kts | 218° |
| 2026-04-20 17:14 | 2.43978 | 113.31867 | 35933 ft | 465 kts | 218° |
| 2026-04-20 17:14 | 2.38920 | 113.27892 | 35930 ft | 465 kts | 218° |
| 2026-04-20 17:15 | 2.33802 | 113.23868 | 35928 ft | 465 kts | 218° |
| 2026-04-20 17:15 | 2.28709 | 113.19868 | 35926 ft | 465 kts | 218° |
| 2026-04-20 17:16 | 2.23607 | 113.15867 | 35928 ft | 466 kts | 218° |
| 2026-04-20 17:16 | 2.18512 | 113.11871 | 35931 ft | 466 kts | 218° |
| 2026-04-20 17:17 | 2.13453 | 113.07894 | 35925 ft | 466 kts | 218° |
| 2026-04-20 17:17 | 2.08351 | 113.03884 | 35921 ft | 466 kts | 218° |
| 2026-04-20 17:18 | 2.03245 | 112.99881 | 35924 ft | 466 kts | 218° |
| 2026-04-20 17:18 | 1.98138 | 112.95875 | 35929 ft | 467 kts | 218° |
| 2026-04-20 17:19 | 1.93032 | 112.91863 | 35932 ft | 467 kts | 218° |
| 2026-04-20 17:19 | 1.87922 | 112.87851 | 35930 ft | 467 kts | 218° |
| 2026-04-20 17:20 | 1.82802 | 112.83843 | 35934 ft | 467 kts | 218° |
| 2026-04-20 17:20 | 1.77686 | 112.79832 | 35936 ft | 467 kts | 218° |
| 2026-04-20 17:21 | 1.72585 | 112.75821 | 35936 ft | 467 kts | 218° |
| 2026-04-20 17:21 | 1.67464 | 112.71806 | 35942 ft | 467 kts | 218° |
| 2026-04-20 17:22 | 1.62345 | 112.67792 | 35935 ft | 468 kts | 218° |
| 2026-04-20 17:22 | 1.57261 | 112.63800 | 35935 ft | 468 kts | 218° |
| 2026-04-20 17:23 | 1.52124 | 112.59792 | 35938 ft | 468 kts | 217° |
| 2026-04-20 17:23 | 1.46978 | 112.55807 | 35938 ft | 468 kts | 217° |
| 2026-04-20 17:24 | 1.41832 | 112.51820 | 35933 ft | 468 kts | 217° |
| 2026-04-20 17:24 | 1.36689 | 112.47827 | 35923 ft | 468 kts | 217° |
| 2026-04-20 17:25 | 1.31533 | 112.43830 | 35922 ft | 468 kts | 217° |
| 2026-04-20 17:25 | 1.26387 | 112.39835 | 35912 ft | 468 kts | 217° |
| 2026-04-20 17:26 | 1.21282 | 112.35857 | 35915 ft | 468 kts | 217° |
| 2026-04-20 17:26 | 1.16978 | 112.32511 | 35915 ft | 468 kts | 217° |
| 2026-04-20 17:27 | 1.10993 | 112.27871 | 35903 ft | 468 kts | 217° |
| 2026-04-20 17:27 | 1.05851 | 112.23876 | 35901 ft | 468 kts | 218° |
| 2026-04-20 17:28 | 1.01540 | 112.20527 | 35893 ft | 468 kts | 217° |
| 2026-04-20 17:28 | 0.96389 | 112.16534 | 35885 ft | 469 kts | 217° |
| 2026-04-20 17:29 | 0.91263 | 112.12563 | 35884 ft | 469 kts | 217° |
| 2026-04-20 17:29 | 0.86118 | 112.08573 | 35892 ft | 468 kts | 217° |
| 2026-04-20 17:30 | 0.80973 | 112.04580 | 35889 ft | 468 kts | 218° |
| 2026-04-20 17:30 | 0.75830 | 112.00582 | 35888 ft | 468 kts | 218° |
| 2026-04-20 17:31 | 0.70696 | 111.96599 | 35892 ft | 468 kts | 217° |
| 2026-04-20 17:31 | 0.65548 | 111.92607 | 35892 ft | 468 kts | 218° |
| 2026-04-20 17:32 | 0.60409 | 111.88611 | 35890 ft | 468 kts | 218° |
| 2026-04-20 17:32 | 0.55266 | 111.84616 | 35889 ft | 468 kts | 218° |
| 2026-04-20 17:33 | 0.50116 | 111.80623 | 35891 ft | 469 kts | 218° |
| 2026-04-20 17:33 | 0.44966 | 111.76633 | 35895 ft | 468 kts | 218° |
| 2026-04-20 17:34 | 0.39853 | 111.72672 | 35894 ft | 468 kts | 218° |
| 2026-04-20 17:34 | 0.34706 | 111.68677 | 35898 ft | 468 kts | 218° |
| 2026-04-20 17:35 | 0.29566 | 111.64690 | 35895 ft | 468 kts | 218° |
| 2026-04-20 17:35 | 0.24424 | 111.60699 | 35894 ft | 467 kts | 218° |
| 2026-04-20 17:36 | 0.19289 | 111.56713 | 35894 ft | 467 kts | 218° |
| 2026-04-20 17:36 | 0.14152 | 111.52729 | 35894 ft | 467 kts | 218° |
| 2026-04-20 17:37 | 0.09052 | 111.48769 | 35891 ft | 467 kts | 218° |
| 2026-04-20 17:37 | 0.03908 | 111.44782 | 35891 ft | 467 kts | 218° |
| 2026-04-20 17:38 | -0.01227 | 111.40789 | 35887 ft | 468 kts | 218° |
| 2026-04-20 17:38 | -0.06373 | 111.36799 | 35890 ft | 468 kts | 218° |
| 2026-04-20 17:39 | -0.11524 | 111.32807 | 35891 ft | 469 kts | 218° |
| 2026-04-20 17:39 | -0.16674 | 111.28808 | 35894 ft | 469 kts | 218° |
| 2026-04-20 17:40 | -0.21832 | 111.24803 | 35898 ft | 469 kts | 218° |
| 2026-04-20 17:40 | -0.26980 | 111.20800 | 35898 ft | 469 kts | 218° |
| 2026-04-20 17:41 | -0.32131 | 111.16813 | 35905 ft | 469 kts | 218° |
| 2026-04-20 17:41 | -0.37295 | 111.12821 | 35903 ft | 469 kts | 218° |
| 2026-04-20 17:42 | -0.42409 | 111.08839 | 35899 ft | 469 kts | 218° |
| 2026-04-20 17:42 | -0.47584 | 111.04795 | 35906 ft | 470 kts | 218° |
| 2026-04-20 17:43 | -0.52710 | 111.00799 | 35908 ft | 470 kts | 218° |
| 2026-04-20 17:43 | -0.57860 | 110.96781 | 35911 ft | 470 kts | 218° |
| 2026-04-20 17:44 | -0.63015 | 110.92758 | 35912 ft | 470 kts | 218° |
| 2026-04-20 17:44 | -0.68180 | 110.88739 | 35913 ft | 470 kts | 218° |
| 2026-04-20 17:45 | -0.73340 | 110.84724 | 35898 ft | 470 kts | 218° |
| 2026-04-20 17:45 | -0.78494 | 110.80698 | 35893 ft | 470 kts | 218° |
| 2026-04-20 17:46 | -0.83642 | 110.76664 | 35899 ft | 470 kts | 218° |
| 2026-04-20 17:46 | -0.88796 | 110.72647 | 35891 ft | 470 kts | 218° |
| 2026-04-20 17:47 | -0.93954 | 110.68641 | 35890 ft | 469 kts | 218° |
| 2026-04-20 17:47 | -0.99101 | 110.64629 | 35887 ft | 469 kts | 218° |
| 2026-04-20 17:48 | -1.04241 | 110.60611 | 35883 ft | 469 kts | 218° |
| 2026-04-20 17:48 | -1.09349 | 110.56625 | 35879 ft | 469 kts | 218° |
| 2026-04-20 17:49 | -1.14502 | 110.52609 | 35876 ft | 469 kts | 218° |
| 2026-04-20 17:49 | -1.19656 | 110.48597 | 35875 ft | 470 kts | 218° |
| 2026-04-20 17:50 | -1.24808 | 110.44578 | 35875 ft | 470 kts | 218° |
| 2026-04-20 17:50 | -1.29956 | 110.40554 | 35882 ft | 470 kts | 218° |
| 2026-04-20 17:51 | -1.35141 | 110.36575 | 35884 ft | 470 kts | 217° |
| 2026-04-20 17:51 | -1.40362 | 110.32643 | 35887 ft | 470 kts | 217° |
| 2026-04-20 17:52 | -1.45553 | 110.28730 | 35888 ft | 470 kts | 217° |
| 2026-04-20 17:52 | -1.50796 | 110.24744 | 35884 ft | 471 kts | 218° |
| 2026-04-20 17:53 | -1.55998 | 110.20780 | 35883 ft | 471 kts | 218° |
| 2026-04-20 17:53 | -1.61186 | 110.16837 | 35885 ft | 471 kts | 218° |
| 2026-04-20 17:54 | -1.66396 | 110.12871 | 35885 ft | 471 kts | 217° |
| 2026-04-20 17:54 | -1.71586 | 110.08865 | 35884 ft | 471 kts | 219° |
| 2026-04-20 17:55 | -1.76681 | 110.04737 | 35882 ft | 471 kts | 220° |
| 2026-04-20 17:55 | -1.81758 | 110.00573 | 35881 ft | 472 kts | 219° |
| 2026-04-20 17:56 | -1.86852 | 109.96433 | 35882 ft | 472 kts | 219° |
| 2026-04-20 17:56 | -1.91971 | 109.92307 | 35882 ft | 472 kts | 219° |
| 2026-04-20 17:57 | -1.97081 | 109.88185 | 35881 ft | 472 kts | 219° |
| 2026-04-20 17:57 | -2.02185 | 109.84063 | 35882 ft | 472 kts | 219° |
| 2026-04-20 17:58 | -2.07301 | 109.79927 | 35883 ft | 472 kts | 219° |
| 2026-04-20 17:58 | -2.12416 | 109.75794 | 35885 ft | 472 kts | 219° |
| 2026-04-20 17:59 | -2.17496 | 109.71692 | 35879 ft | 472 kts | 219° |
| 2026-04-20 17:59 | -2.22612 | 109.67562 | 35879 ft | 472 kts | 219° |
| 2026-04-20 18:00 | -2.27723 | 109.63429 | 35884 ft | 473 kts | 219° |
| 2026-04-20 18:00 | -2.32831 | 109.59298 | 35879 ft | 472 kts | 219° |
| 2026-04-20 18:01 | -2.37950 | 109.55153 | 35881 ft | 472 kts | 219° |
| 2026-04-20 18:01 | -2.43033 | 109.51045 | 35881 ft | 472 kts | 219° |
| 2026-04-20 18:02 | -2.48150 | 109.46912 | 35882 ft | 472 kts | 219° |
| 2026-04-20 18:02 | -2.53267 | 109.42774 | 35880 ft | 472 kts | 219° |
| 2026-04-20 18:03 | -2.58364 | 109.38656 | 35884 ft | 471 kts | 219° |
| 2026-04-20 18:03 | -2.63467 | 109.34530 | 35884 ft | 472 kts | 219° |
| 2026-04-20 18:04 | -2.68575 | 109.30397 | 35884 ft | 472 kts | 219° |
| 2026-04-20 18:04 | -2.73679 | 109.26259 | 35881 ft | 472 kts | 220° |
| 2026-04-20 18:05 | -2.81300 | 109.20092 | 35879 ft | 472 kts | 219° |
| 2026-04-20 18:05 | -2.86409 | 109.15957 | 35880 ft | 472 kts | 219° |
| 2026-04-20 18:06 | -2.91519 | 109.11835 | 35881 ft | 472 kts | 219° |
| 2026-04-20 18:06 | -2.96692 | 109.07796 | 35884 ft | 471 kts | 218° |
| 2026-04-20 18:07 | -3.01892 | 109.03792 | 35882 ft | 471 kts | 218° |
| 2026-04-20 18:07 | -3.07070 | 108.99776 | 35879 ft | 471 kts | 219° |
| 2026-04-20 18:08 | -3.12203 | 108.95759 | 35880 ft | 471 kts | 219° |
| 2026-04-20 18:08 | -3.17367 | 108.91720 | 35880 ft | 471 kts | 219° |
| 2026-04-20 18:09 | -3.22529 | 108.87680 | 35881 ft | 471 kts | 219° |
| 2026-04-20 18:09 | -3.27693 | 108.83646 | 35879 ft | 471 kts | 219° |
| 2026-04-20 18:10 | -3.32891 | 108.79588 | 35876 ft | 471 kts | 219° |
| 2026-04-20 18:10 | -3.38029 | 108.75576 | 35881 ft | 470 kts | 219° |
| 2026-04-20 18:11 | -3.43173 | 108.71556 | 35883 ft | 469 kts | 219° |
| 2026-04-20 18:11 | -3.48322 | 108.67538 | 35883 ft | 468 kts | 219° |
| 2026-04-20 18:12 | -3.53457 | 108.63524 | 35881 ft | 468 kts | 219° |
| 2026-04-20 18:12 | -3.58588 | 108.59506 | 35879 ft | 468 kts | 219° |
| 2026-04-20 18:13 | -3.62856 | 108.56169 | 35877 ft | 468 kts | 219° |
| 2026-04-20 18:13 | -3.67992 | 108.52153 | 35872 ft | 468 kts | 219° |
| 2026-04-20 18:14 | -3.73132 | 108.48127 | 35871 ft | 469 kts | 219° |
| 2026-04-20 18:14 | -3.78275 | 108.44100 | 35872 ft | 469 kts | 219° |
| 2026-04-20 18:15 | -3.83419 | 108.40080 | 35880 ft | 468 kts | 219° |
| 2026-04-20 18:15 | -3.88549 | 108.36069 | 35884 ft | 467 kts | 219° |
| 2026-04-20 18:16 | -3.93671 | 108.32062 | 35884 ft | 467 kts | 219° |
| 2026-04-20 18:16 | -3.98761 | 108.28081 | 35880 ft | 467 kts | 219° |
| 2026-04-20 18:17 | -4.03877 | 108.24077 | 35879 ft | 467 kts | 219° |
| 2026-04-20 18:17 | -4.08992 | 108.20071 | 35877 ft | 467 kts | 219° |
| 2026-04-20 18:18 | -4.14156 | 108.16128 | 35875 ft | 467 kts | 214° |
| 2026-04-20 18:18 | -4.19616 | 108.12588 | 35872 ft | 467 kts | 214° |
| 2026-04-20 18:19 | -4.25085 | 108.09045 | 35870 ft | 468 kts | 214° |
| 2026-04-20 18:19 | -4.30546 | 108.05503 | 35871 ft | 468 kts | 214° |
| 2026-04-20 18:20 | -4.36008 | 108.01961 | 35870 ft | 468 kts | 214° |
| 2026-04-20 18:20 | -4.41471 | 107.98415 | 35868 ft | 468 kts | 214° |
| 2026-04-20 18:21 | -4.46944 | 107.94865 | 35868 ft | 468 kts | 214° |
| 2026-04-20 18:21 | -4.52407 | 107.91319 | 35866 ft | 468 kts | 214° |
| 2026-04-20 18:22 | -4.57883 | 107.87764 | 35868 ft | 468 kts | 214° |
| 2026-04-20 18:22 | -4.63317 | 107.84234 | 35867 ft | 468 kts | 214° |
| 2026-04-20 18:23 | -4.68794 | 107.80678 | 35870 ft | 468 kts | 214° |
| 2026-04-20 18:23 | -4.74267 | 107.77126 | 35869 ft | 469 kts | 214° |
| 2026-04-20 18:24 | -4.79751 | 107.73573 | 35868 ft | 469 kts | 213° |
| 2026-04-20 18:24 | -4.85217 | 107.70016 | 35873 ft | 468 kts | 214° |
| 2026-04-20 18:25 | -4.87944 | 107.68238 | 35549 ft | 467 kts | 214° |
| 2026-04-20 18:25 | -4.90679 | 107.66459 | 34820 ft | 468 kts | 214° |
| 2026-04-20 18:25 | -4.93419 | 107.64678 | 34075 ft | 470 kts | 214° |
| 2026-04-20 18:25 | -4.96126 | 107.62920 | 32895 ft | 469 kts | 214° |
| 2026-04-20 18:26 | -4.98874 | 107.61132 | 31460 ft | 473 kts | 214° |
| 2026-04-20 18:26 | -5.01647 | 107.59328 | 30021 ft | 477 kts | 214° |
| 2026-04-20 18:26 | -5.04439 | 107.57512 | 28313 ft | 480 kts | 214° |
| 2026-04-20 18:26 | -5.07252 | 107.55682 | 26575 ft | 483 kts | 214° |
| 2026-04-20 18:27 | -5.10081 | 107.53841 | 24812 ft | 486 kts | 214° |
| 2026-04-20 18:27 | -5.12931 | 107.51988 | 23102 ft | 489 kts | 213° |
| 2026-04-20 18:27 | -5.15757 | 107.50147 | 21701 ft | 479 kts | 213° |
| 2026-04-20 18:27 | -5.18526 | 107.48344 | 20396 ft | 470 kts | 213° |
| 2026-04-20 18:28 | -5.21241 | 107.46578 | 19126 ft | 463 kts | 213° |
| 2026-04-20 18:28 | -5.23928 | 107.44833 | 17912 ft | 455 kts | 212° |
| 2026-04-20 18:28 | -5.26560 | 107.43126 | 16622 ft | 446 kts | 212° |
| 2026-04-20 18:28 | -5.29144 | 107.41448 | 15400 ft | 438 kts | 212° |
| 2026-04-20 18:29 | -5.31679 | 107.39797 | 14239 ft | 430 kts | 212° |
| 2026-04-20 18:29 | -5.34161 | 107.38180 | 13038 ft | 423 kts | 212° |
| 2026-04-20 18:29 | -5.36604 | 107.36587 | 11806 ft | 415 kts | 212° |
| 2026-04-20 18:29 | -5.39002 | 107.35025 | 10621 ft | 407 kts | 212° |
| 2026-04-20 18:30 | -5.41368 | 107.33481 | 9752 ft | 397 kts | 212° |
| 2026-04-20 18:30 | -5.43561 | 107.32046 | 9846 ft | 356 kts | 212° |
| 2026-04-20 18:30 | -5.45540 | 107.30751 | 9872 ft | 324 kts | 212° |
| 2026-04-20 18:30 | -5.47371 | 107.29558 | 9816 ft | 307 kts | 211° |
| 2026-04-20 18:31 | -5.49136 | 107.28410 | 9471 ft | 299 kts | 211° |
| 2026-04-20 18:31 | -5.50885 | 107.27274 | 9245 ft | 300 kts | 211° |
| 2026-04-20 18:31 | -5.52638 | 107.26137 | 9056 ft | 300 kts | 212° |
| 2026-04-20 18:31 | -5.54391 | 107.24996 | 8862 ft | 301 kts | 211° |
| 2026-04-20 18:32 | -5.56122 | 107.23868 | 8671 ft | 299 kts | 211° |
| 2026-04-20 18:32 | -5.57860 | 107.22733 | 8469 ft | 298 kts | 211° |
| 2026-04-20 18:32 | -5.59589 | 107.21604 | 8276 ft | 297 kts | 211° |
| 2026-04-20 18:32 | -5.61318 | 107.20478 | 8082 ft | 296 kts | 211° |
| 2026-04-20 18:33 | -5.63045 | 107.19352 | 7887 ft | 295 kts | 211° |
| 2026-04-20 18:33 | -5.64857 | 107.18171 | 7688 ft | 294 kts | 211° |
| 2026-04-20 18:33 | -5.66595 | 107.17040 | 7489 ft | 293 kts | 211° |
| 2026-04-20 18:33 | -5.68277 | 107.15944 | 7302 ft | 292 kts | 211° |
| 2026-04-20 18:34 | -5.69976 | 107.14836 | 7115 ft | 291 kts | 211° |
| 2026-04-20 18:34 | -5.71672 | 107.13729 | 6931 ft | 290 kts | 211° |
| 2026-04-20 18:34 | -5.73364 | 107.12625 | 6741 ft | 290 kts | 211° |
| 2026-04-20 18:34 | -5.75051 | 107.11526 | 6584 ft | 289 kts | 211° |
| 2026-04-20 18:35 | -5.76733 | 107.10429 | 6446 ft | 288 kts | 211° |
| 2026-04-20 18:35 | -5.78411 | 107.09336 | 6308 ft | 287 kts | 211° |
| 2026-04-20 18:35 | -5.80086 | 107.08244 | 6159 ft | 287 kts | 211° |
| 2026-04-20 18:35 | -5.81757 | 107.07154 | 6016 ft | 286 kts | 211° |
| 2026-04-20 18:36 | -5.83421 | 107.06068 | 5866 ft | 285 kts | 211° |
| 2026-04-20 18:36 | -5.85078 | 107.04987 | 5719 ft | 284 kts | 211° |
| 2026-04-20 18:36 | -5.86733 | 107.03906 | 5570 ft | 283 kts | 211° |
| 2026-04-20 18:36 | -5.88382 | 107.02828 | 5425 ft | 282 kts | 211° |
| 2026-04-20 18:37 | -5.90028 | 107.01754 | 5281 ft | 282 kts | 211° |
| 2026-04-20 18:37 | -5.91670 | 107.00684 | 5131 ft | 281 kts | 211° |
| 2026-04-20 18:37 | -5.93307 | 106.99615 | 4991 ft | 278 kts | 211° |
| 2026-04-20 18:37 | -5.94892 | 106.98580 | 4850 ft | 266 kts | 211° |
| 2026-04-20 18:38 | -5.96412 | 106.97589 | 4707 ft | 255 kts | 211° |
| 2026-04-20 18:38 | -5.97871 | 106.96637 | 4565 ft | 245 kts | 211° |
| 2026-04-20 18:38 | -5.99266 | 106.95726 | 4423 ft | 239 kts | 211° |
| 2026-04-20 18:38 | -6.00657 | 106.94820 | 4275 ft | 238 kts | 211° |
| 2026-04-20 18:39 | -6.02009 | 106.93902 | 4136 ft | 232 kts | 219° |
| 2026-04-20 18:39 | -6.02972 | 106.92646 | 4042 ft | 225 kts | 243° |
| 2026-04-20 18:39 | -6.03562 | 106.91226 | 4008 ft | 217 kts | 248° |
| 2026-04-20 18:39 | -6.04106 | 106.89822 | 4009 ft | 215 kts | 248° |
| 2026-04-20 18:40 | -6.04660 | 106.88422 | 4013 ft | 215 kts | 247° |
| 2026-04-20 18:40 | -6.05218 | 106.87023 | 3903 ft | 216 kts | 247° |
| 2026-04-20 18:40 | -6.05777 | 106.85623 | 3671 ft | 217 kts | 247° |
| 2026-04-20 18:40 | -6.06340 | 106.84213 | 3404 ft | 218 kts | 247° |
| 2026-04-20 18:41 | -6.06894 | 106.82823 | 3153 ft | 208 kts | 247° |
| 2026-04-20 18:41 | -6.07418 | 106.81509 | 2878 ft | 196 kts | 247° |
| 2026-04-20 18:41 | -6.07907 | 106.80284 | 2645 ft | 183 kts | 247° |
| 2026-04-20 18:41 | -6.08368 | 106.79129 | 2402 ft | 173 kts | 247° |
| 2026-04-20 18:42 | -6.08800 | 106.78047 | 2182 ft | 165 kts | 247° |
| 2026-04-20 18:42 | -6.09214 | 106.77007 | 1995 ft | 156 kts | 247° |
| 2026-04-20 18:42 | -6.09614 | 106.76007 | 1785 ft | 153 kts | 245° |
| 2026-04-20 18:42 | -6.10010 | 106.75013 | 1590 ft | 151 kts | 246° |
| 2026-04-20 18:43 | -6.10394 | 106.74053 | 1408 ft | 149 kts | 247° |
| 2026-04-20 18:43 | -6.10778 | 106.73090 | 1200 ft | 147 kts | 246° |
| 2026-04-20 18:43 | -6.11159 | 106.72132 | 1010 ft | 148 kts | 246° |
| 2026-04-20 18:43 | -6.11542 | 106.71173 | 836 ft | 146 kts | 247° |
| 2026-04-20 18:44 | -6.11913 | 106.70235 | 653 ft | 143 kts | 245° |
| 2026-04-20 18:44 | -6.12284 | 106.69311 | 457 ft | 143 kts | 248° |
| 2026-04-20 18:44 | -6.12644 | 106.68392 | 269 ft | 141 kts | 248° |
| 2026-04-20 18:44 | -6.13002 | 106.67484 | 90 ft | 139 kts | 247° |
| 2026-04-20 18:45 | -6.13340 | 106.66621 | 31 ft | 121 kts | 248° |
| 2026-04-20 18:45 | -6.13603 | 106.65975 | 26 ft | 76 kts | 249° |
| 2026-04-20 18:45 | -6.13733 | 106.65642 | 27 ft | 31 kts | 254° |
| 2026-04-20 18:45 | -6.13750 | 106.65452 | 29 ft | 25 kts | 275° |
| 2026-04-20 18:46 | -6.13688 | 106.65334 | 30 ft | 16 kts | 333° |
| 2026-04-20 18:46 | -6.13592 | 106.65296 | 30 ft | 14 kts | 339° |
| 2026-04-20 18:46 | -6.13472 | 106.65249 | 30 ft | 22 kts | 338° |
| 2026-04-20 18:46 | -6.13335 | 106.65188 | 30 ft | 16 kts | 329° |
| 2026-04-20 18:47 | -6.13263 | 106.65191 | 30 ft | 5 kts | 31° |
| 2026-04-20 18:47 | -6.13260 | 106.65192 | 30 ft | 0 kts | 31° |